createdAt,value
2018-09-11T00:00:37.940Z,70.30
2018-09-11T00:03:06.804Z,69.82
2018-09-11T00:05:35.667Z,70.12
2018-09-11T00:08:04.543Z,69.98
2018-09-11T00:10:33.407Z,70.42
2018-09-11T00:13:02.240Z,70.21
2018-09-11T00:15:31.086Z,70.56
2018-09-11T00:17:59.944Z,70.44
2018-09-11T00:20:28.806Z,70.79
2018-09-11T00:22:57.693Z,70.89
2018-09-11T00:25:26.549Z,70.87
2018-09-11T00:27:55.401Z,70.06
2018-09-11T00:30:24.331Z,70.78
2018-09-11T00:32:53.198Z,70.80
2018-09-11T00:35:22.092Z,71.62
2018-09-11T00:37:50.958Z,71.09
2018-09-11T00:40:19.839Z,71.40
2018-09-11T00:42:48.731Z,72.10
2018-09-11T00:45:17.679Z,71.65
2018-09-11T00:47:46.526Z,71.83
2018-09-11T00:50:15.430Z,71.63
2018-09-11T00:52:44.291Z,71.98
2018-09-11T00:55:13.180Z,71.74
2018-09-11T00:57:42.087Z,72.06
2018-09-11T01:00:10.964Z,72.03
2018-09-11T01:02:39.825Z,72.32
2018-09-11T01:05:08.655Z,72.21
2018-09-11T01:07:37.504Z,72.56
2018-09-11T01:10:08.492Z,72.68
2018-09-11T01:12:37.340Z,71.42
2018-09-11T01:15:07.716Z,72.53
2018-09-11T01:17:36.942Z,72.18
2018-09-11T01:20:06.157Z,72.68
2018-09-11T01:22:35.032Z,72.60
2018-09-11T01:25:03.884Z,71.46
2018-09-11T01:27:32.747Z,72.64
2018-09-11T01:30:01.605Z,72.89
2018-09-11T01:32:30.451Z,72.89
2018-09-11T01:34:59.342Z,73.23
2018-09-11T01:37:28.161Z,73.45
2018-09-11T01:39:57.000Z,73.58
2018-09-11T01:42:25.836Z,73.45
2018-09-11T01:44:54.701Z,73.68
2018-09-11T01:47:23.544Z,73.81
2018-09-11T01:49:52.466Z,73.79
2018-09-11T01:52:21.276Z,73.60
2018-09-11T01:54:50.161Z,74.22
2018-09-11T01:57:19.045Z,74.44
2018-09-11T01:59:47.916Z,74.32
2018-09-11T02:02:16.800Z,74.37
2018-09-11T02:04:45.656Z,74.64
2018-09-11T02:07:14.522Z,73.75
2018-09-11T02:09:43.344Z,74.87
2018-09-11T02:12:12.188Z,74.41
2018-09-11T02:14:41.022Z,74.50
2018-09-11T02:17:09.907Z,74.89
2018-09-11T02:19:38.769Z,74.55
2018-09-11T02:22:07.897Z,74.53
2018-09-11T02:24:36.970Z,74.77
2018-09-11T02:27:05.817Z,75.01
2018-09-11T02:29:34.652Z,74.51
2018-09-11T02:32:03.517Z,75.29
2018-09-11T02:34:32.349Z,75.42
2018-09-11T02:37:01.211Z,75.34
2018-09-11T02:39:30.067Z,74.90
2018-09-11T02:41:58.959Z,75.70
2018-09-11T02:44:27.802Z,75.49
2018-09-11T02:46:56.653Z,75.99
2018-09-11T02:49:25.503Z,75.40
2018-09-11T02:51:54.341Z,75.88
2018-09-11T02:54:23.221Z,75.64
2018-09-11T02:56:52.088Z,75.71
2018-09-11T02:59:21.000Z,75.58
2018-09-11T03:01:49.886Z,75.75
2018-09-11T03:04:18.730Z,75.98
2018-09-11T03:06:47.598Z,76.16
2018-09-11T03:09:16.460Z,76.31
2018-09-11T03:11:45.354Z,75.92
2018-09-11T03:14:14.235Z,76.08
2018-09-11T03:16:43.078Z,76.71
2018-09-11T03:19:11.925Z,76.09
2018-09-11T03:21:40.756Z,76.03
2018-09-11T03:24:09.590Z,75.18
2018-09-11T03:26:38.453Z,75.92
2018-09-11T03:29:07.290Z,76.50
2018-09-11T03:31:36.193Z,76.76
2018-09-11T03:34:05.068Z,76.46
2018-09-11T03:36:33.942Z,77.19
2018-09-11T03:39:02.761Z,77.21
2018-09-11T03:41:31.621Z,77.18
2018-09-11T03:44:00.517Z,77.08
2018-09-11T03:46:29.371Z,77.57
2018-09-11T03:48:58.216Z,77.05
2018-09-11T03:51:27.089Z,77.15
2018-09-11T03:53:55.982Z,77.11
2018-09-11T03:56:24.860Z,77.35
2018-09-11T03:58:53.749Z,77.54
2018-09-11T04:01:22.568Z,77.72
2018-09-11T04:03:51.526Z,77.68
2018-09-11T04:06:20.364Z,77.86
2018-09-11T04:08:49.226Z,78.01
2018-09-11T04:11:18.094Z,77.85
2018-09-11T04:13:47.089Z,78.25
2018-09-11T04:16:15.932Z,77.79
2018-09-11T04:18:44.792Z,77.97
2018-09-11T04:21:13.642Z,77.85
2018-09-11T04:23:42.470Z,77.74
2018-09-11T04:26:11.385Z,77.94
2018-09-11T04:28:40.247Z,78.25
2018-09-11T04:31:09.134Z,78.02
2018-09-11T04:33:38.354Z,78.02
2018-09-11T04:36:07.304Z,77.96
2018-09-11T04:38:36.127Z,78.02
2018-09-11T04:41:05.206Z,78.32
2018-09-11T04:43:34.051Z,78.38
2018-09-11T04:46:02.915Z,78.76
2018-09-11T04:48:31.798Z,79.20
2018-09-11T04:51:00.684Z,78.95
2018-09-11T04:53:29.531Z,79.31
2018-09-11T04:55:58.556Z,79.16
2018-09-11T04:58:27.319Z,79.45
2018-09-11T05:00:56.154Z,79.20
2018-09-11T05:03:25.021Z,79.01
2018-09-11T05:05:53.883Z,79.21
2018-09-11T05:08:22.721Z,77.92
2018-09-11T05:10:52.574Z,78.79
2018-09-11T05:13:21.450Z,79.10
2018-09-11T05:15:50.765Z,78.76
2018-09-11T05:18:19.609Z,78.48
2018-09-11T05:20:48.482Z,78.34
2018-09-11T05:23:17.625Z,78.95
2018-09-11T05:25:46.440Z,77.85
2018-09-11T05:28:15.311Z,78.26
2018-09-11T05:30:44.169Z,78.26
2018-09-11T05:33:13.026Z,78.31
2018-09-11T05:35:41.904Z,78.56
2018-09-11T05:38:10.771Z,78.59
2018-09-11T05:40:39.623Z,79.07
2018-09-11T05:43:08.461Z,78.76
2018-09-11T05:45:37.325Z,78.72
2018-09-11T05:48:06.216Z,78.82
2018-09-11T05:50:36.902Z,78.76
2018-09-11T05:53:05.763Z,78.35
2018-09-11T05:55:34.615Z,78.19
2018-09-11T05:58:03.493Z,78.44
2018-09-11T06:00:32.337Z,78.35
2018-09-11T06:03:01.209Z,77.07
2018-09-11T06:05:30.066Z,77.33
2018-09-11T06:07:58.920Z,76.33
2018-09-11T06:10:27.763Z,76.79
2018-09-11T06:12:56.613Z,77.13
2018-09-11T06:15:25.466Z,77.23
2018-09-11T06:17:54.432Z,77.25
2018-09-11T06:20:23.288Z,77.37
2018-09-11T06:22:52.158Z,77.23
2018-09-11T06:25:21.033Z,77.37
2018-09-11T06:27:50.078Z,76.81
2018-09-11T06:30:18.963Z,76.77
2018-09-11T06:32:47.817Z,76.86
2018-09-11T06:35:16.664Z,77.49
2018-09-11T06:37:45.564Z,77.19
2018-09-11T06:40:14.398Z,77.25
2018-09-11T06:42:43.244Z,77.47
2018-09-11T06:45:12.105Z,76.83
2018-09-11T06:47:40.945Z,77.15
2018-09-11T06:50:09.791Z,76.74
2018-09-11T06:52:38.649Z,76.66
2018-09-11T06:55:07.522Z,76.60
2018-09-11T06:57:36.357Z,76.54
2018-09-11T07:00:05.244Z,76.56
2018-09-11T07:02:34.131Z,76.49
2018-09-11T07:05:02.984Z,76.54
2018-09-11T07:07:31.842Z,75.15
2018-09-11T07:10:00.686Z,76.12
2018-09-11T07:12:29.537Z,75.63
2018-09-11T07:14:58.510Z,75.78
2018-09-11T07:17:27.350Z,76.34
2018-09-11T07:19:56.401Z,76.33
2018-09-11T07:22:25.081Z,75.86
2018-09-11T07:24:53.933Z,75.94
2018-09-11T07:27:22.785Z,75.95
2018-09-11T07:29:51.652Z,76.06
2018-09-11T07:32:20.581Z,75.75
2018-09-11T07:34:49.365Z,75.69
2018-09-11T07:37:18.278Z,75.39
2018-09-11T07:39:47.144Z,75.02
2018-09-11T07:42:16.051Z,75.05
2018-09-11T07:44:44.923Z,74.55
2018-09-11T07:47:13.778Z,74.98
2018-09-11T07:49:42.640Z,74.96
2018-09-11T07:52:11.519Z,74.79
2018-09-11T07:54:40.405Z,74.78
2018-09-11T07:57:09.282Z,74.76
2018-09-11T07:59:38.191Z,74.26
2018-09-11T08:02:07.506Z,73.98
2018-09-11T08:04:36.373Z,73.51
2018-09-11T08:07:05.218Z,73.70
2018-09-11T08:09:34.159Z,73.40
2018-09-11T08:12:02.991Z,72.78
2018-09-11T08:14:31.797Z,72.76
2018-09-11T08:17:00.705Z,72.18
2018-09-11T08:19:29.559Z,72.23
2018-09-11T08:21:58.401Z,72.40
2018-09-11T08:24:27.268Z,72.01
2018-09-11T08:26:56.239Z,71.74
2018-09-11T08:29:25.190Z,71.56
2018-09-11T08:31:53.941Z,71.22
2018-09-11T08:34:23.059Z,70.55
2018-09-11T08:36:51.926Z,69.77
2018-09-11T08:39:21.175Z,68.93
2018-09-11T08:41:50.035Z,68.29
2018-09-11T08:44:18.905Z,68.23
2018-09-11T08:46:47.848Z,67.97
2018-09-11T08:49:16.605Z,67.68
2018-09-11T08:51:45.469Z,66.78
2018-09-11T08:54:14.431Z,66.37
2018-09-11T08:56:43.276Z,64.43
2018-09-11T08:59:12.120Z,64.62
2018-09-11T09:01:40.994Z,64.77
2018-09-11T09:04:09.823Z,63.14
2018-09-11T09:06:38.705Z,62.78
2018-09-11T09:09:09.594Z,60.79
2018-09-11T09:11:38.897Z,57.21
2018-09-11T09:14:07.960Z,56.01
2018-09-11T09:16:36.928Z,54.10
2018-09-11T09:19:05.844Z,53.38
2018-09-11T09:21:34.777Z,51.29
2018-09-11T09:24:03.702Z,49.19
2018-09-11T09:26:32.822Z,48.49
2018-09-11T09:29:01.830Z,49.56
2018-09-11T09:31:30.748Z,48.22
2018-09-11T09:33:59.759Z,45.64
2018-09-11T09:36:28.669Z,44.85
2018-09-11T09:38:57.839Z,43.29
2018-09-11T09:41:27.090Z,42.61
2018-09-11T09:43:56.181Z,42.70
2018-09-11T09:46:25.141Z,41.07
2018-09-11T09:48:54.322Z,40.55
2018-09-11T09:51:23.288Z,41.99
2018-09-11T09:53:52.132Z,38.01
2018-09-11T09:56:20.982Z,39.33
2018-09-11T09:58:49.990Z,38.96
2018-09-11T10:01:36.462Z,38.80
2018-09-11T10:04:05.402Z,38.36
2018-09-11T10:06:34.331Z,38.22
2018-09-11T10:09:03.236Z,39.57
2018-09-11T10:11:32.096Z,39.76
2018-09-11T10:14:00.966Z,37.89
2018-09-11T10:16:29.804Z,36.76
2018-09-11T10:18:58.695Z,39.03
2018-09-11T10:21:27.528Z,37.48
2018-09-11T10:23:56.419Z,37.18
2018-09-11T10:26:25.291Z,36.38
2018-09-11T10:28:54.381Z,36.81
2018-09-11T10:31:23.225Z,36.81
2018-09-11T10:33:52.134Z,36.25
2018-09-11T10:36:20.930Z,35.09
2018-09-11T10:38:49.722Z,35.88
2018-09-11T10:41:18.561Z,36.63
2018-09-11T10:43:47.397Z,35.27
2018-09-11T10:46:16.256Z,35.85
2018-09-11T10:48:45.158Z,36.10
2018-09-11T10:51:14.012Z,35.59
2018-09-11T10:53:42.842Z,34.93
2018-09-11T10:56:11.762Z,35.14
2018-09-11T10:58:40.613Z,34.62
2018-09-11T11:01:09.491Z,33.71
2018-09-11T11:03:38.335Z,32.42
2018-09-11T11:06:07.202Z,34.14
2018-09-11T11:08:36.036Z,34.13
2018-09-11T11:11:04.878Z,33.58
2018-09-11T11:13:33.725Z,31.84
2018-09-11T11:16:02.573Z,34.77
2018-09-11T11:18:31.405Z,32.63
2018-09-11T11:21:00.225Z,34.68
2018-09-11T11:23:29.085Z,34.84
2018-09-11T11:25:58.210Z,34.08
2018-09-11T11:28:27.098Z,31.56
2018-09-11T11:30:55.932Z,33.69
2018-09-11T11:33:24.763Z,33.72
2018-09-11T11:35:53.629Z,34.77
2018-09-11T11:38:22.472Z,35.83
2018-09-11T11:40:51.308Z,36.10
2018-09-11T11:43:20.247Z,36.86
2018-09-11T11:45:49.498Z,37.73
2018-09-11T11:48:18.488Z,39.09
2018-09-11T11:50:47.317Z,39.59
2018-09-11T11:53:16.233Z,39.68
2018-09-11T11:55:45.060Z,40.21
2018-09-11T11:58:14.084Z,40.91
2018-09-11T12:00:42.960Z,40.92
2018-09-11T12:03:11.774Z,40.71
2018-09-11T12:05:40.637Z,41.04
2018-09-11T12:08:09.486Z,41.20
2018-09-11T12:10:38.423Z,41.09
2018-09-11T12:13:07.270Z,41.98
2018-09-11T12:15:36.099Z,41.84
2018-09-11T12:18:04.981Z,42.51
2018-09-11T12:20:33.796Z,42.63
2018-09-11T12:23:02.609Z,41.90
2018-09-11T12:25:31.477Z,42.14
2018-09-11T12:28:00.272Z,41.90
2018-09-11T12:30:29.077Z,42.48
2018-09-11T12:32:58.469Z,42.72
2018-09-11T12:35:27.282Z,42.19
2018-09-11T12:37:56.190Z,42.64
2018-09-11T12:40:25.020Z,42.45
2018-09-11T12:42:53.906Z,42.75
2018-09-11T12:45:22.704Z,42.21
2018-09-11T12:47:51.960Z,42.85
2018-09-11T12:50:20.360Z,43.02
2018-09-11T12:52:49.201Z,43.23
2018-09-11T12:55:18.034Z,43.31
2018-09-11T12:57:46.856Z,43.33
2018-09-11T13:00:15.712Z,44.11
2018-09-11T13:02:44.541Z,44.66
2018-09-11T13:05:13.382Z,44.95
2018-09-11T13:07:42.224Z,45.23
2018-09-11T13:10:11.112Z,45.43
2018-09-11T13:12:39.884Z,45.89
2018-09-11T13:15:08.827Z,46.54
2018-09-11T13:17:37.655Z,46.25
2018-09-11T13:20:06.476Z,46.36
2018-09-11T13:22:35.327Z,46.69
2018-09-11T13:25:04.163Z,46.10
2018-09-11T13:27:33.068Z,45.72
2018-09-11T13:30:01.908Z,45.44
2018-09-11T13:32:30.793Z,45.01
2018-09-11T13:34:59.610Z,45.61
2018-09-11T13:37:28.454Z,44.27
2018-09-11T13:39:57.320Z,44.32
2018-09-11T13:42:26.155Z,42.71
2018-09-11T13:44:54.973Z,43.93
2018-09-11T13:47:24.107Z,42.97
2018-09-11T13:49:52.628Z,43.15
2018-09-11T13:52:21.501Z,43.35
2018-09-11T13:54:50.298Z,43.42
2018-09-11T13:57:19.131Z,43.30
2018-09-11T13:59:48.435Z,44.36
2018-09-11T14:02:17.276Z,44.08
2018-09-11T14:04:46.083Z,44.12
2018-09-11T14:07:14.938Z,44.14
2018-09-11T14:09:43.817Z,44.17
2018-09-11T14:12:12.665Z,44.49
2018-09-11T14:14:41.512Z,44.91
2018-09-11T14:17:10.349Z,45.26
2018-09-11T14:19:39.197Z,44.62
2018-09-11T14:22:07.996Z,44.53
2018-09-11T14:24:36.870Z,44.51
2018-09-11T14:27:05.772Z,44.34
2018-09-11T14:29:34.623Z,44.20
2018-09-11T14:32:03.450Z,43.65
2018-09-11T14:34:32.363Z,43.95
2018-09-11T14:37:01.161Z,44.53
2018-09-11T14:39:30.005Z,44.07
2018-09-11T14:41:58.823Z,44.00
2018-09-11T14:44:27.696Z,44.08
2018-09-11T14:46:56.503Z,44.35
2018-09-11T14:49:25.370Z,44.22
2018-09-11T14:51:54.172Z,44.71
2018-09-11T14:54:23.002Z,44.77
2018-09-11T14:56:51.846Z,44.79
2018-09-11T14:59:20.748Z,45.70
2018-09-11T15:01:49.712Z,44.35
2018-09-11T15:04:18.587Z,44.47
2018-09-11T15:06:47.391Z,45.43
2018-09-11T15:09:16.232Z,45.87
2018-09-11T15:11:45.066Z,46.04
2018-09-11T15:14:13.910Z,46.12
2018-09-11T15:16:42.765Z,46.01
2018-09-11T15:19:11.597Z,46.23
2018-09-11T15:21:40.457Z,46.62
2018-09-11T15:24:09.342Z,46.77
2018-09-11T15:26:38.198Z,47.14
2018-09-11T15:29:07.166Z,47.32
2018-09-11T15:31:35.992Z,47.58
2018-09-11T15:34:04.899Z,46.77
2018-09-11T15:36:33.748Z,47.25
2018-09-11T15:39:02.593Z,46.41
2018-09-11T15:41:31.491Z,46.97
2018-09-11T15:44:00.394Z,46.80
2018-09-11T15:46:29.173Z,47.08
2018-09-11T15:48:58.012Z,47.24
2018-09-11T15:51:26.845Z,47.62
2018-09-11T15:53:55.678Z,47.59
2018-09-11T15:56:24.608Z,48.00
2018-09-11T15:58:53.467Z,47.93
2018-09-11T16:01:22.306Z,47.50
2018-09-11T16:03:51.254Z,48.01
2018-09-11T16:06:20.140Z,47.91
2018-09-11T16:08:49.663Z,47.01
2018-09-11T16:11:18.995Z,48.42
2018-09-11T16:13:47.895Z,48.59
2018-09-11T16:16:17.829Z,48.52
2018-09-11T16:18:48.313Z,48.45
2018-09-11T16:21:17.986Z,48.11
2018-09-11T16:23:49.037Z,47.67
2018-09-11T16:26:17.873Z,48.45
2018-09-11T16:28:46.709Z,48.39
2018-09-11T16:31:15.563Z,48.83
2018-09-11T16:33:44.417Z,48.84
2018-09-11T16:36:13.320Z,48.88
2018-09-11T16:38:42.223Z,48.52
2018-09-11T16:41:11.094Z,48.09
2018-09-11T16:43:40.710Z,48.63
2018-09-11T16:46:09.542Z,48.04
2018-09-11T16:48:38.410Z,47.98
2018-09-11T16:51:07.236Z,49.00
2018-09-11T16:53:36.082Z,49.27
2018-09-11T16:56:04.914Z,49.56
2018-09-11T16:58:33.749Z,49.86
2018-09-11T17:01:02.561Z,50.19
2018-09-11T17:03:31.535Z,50.05
2018-09-11T17:06:00.362Z,50.23
2018-09-11T17:08:29.251Z,50.50
2018-09-11T17:10:58.073Z,50.66
2018-09-11T17:13:26.904Z,50.69
2018-09-11T17:15:55.747Z,50.87
2018-09-11T17:18:24.587Z,50.74
2018-09-11T17:20:53.424Z,50.96
2018-09-11T17:23:22.270Z,50.96
2018-09-11T17:25:51.129Z,51.26
2018-09-11T17:28:19.957Z,51.46
2018-09-11T17:30:48.876Z,51.51
2018-09-11T17:33:17.712Z,51.60
2018-09-11T17:35:46.660Z,51.44
2018-09-11T17:38:15.489Z,50.23
2018-09-11T17:40:44.307Z,51.07
2018-09-11T17:43:13.255Z,51.38
2018-09-11T17:45:42.131Z,51.64
2018-09-11T17:48:10.988Z,51.68
2018-09-11T17:50:39.946Z,51.50
2018-09-11T17:53:08.878Z,51.52
2018-09-11T17:55:37.738Z,51.89
2018-09-11T17:58:06.650Z,51.81
2018-09-11T18:00:35.477Z,51.80
2018-09-11T18:03:04.385Z,51.85
2018-09-11T18:05:33.197Z,52.18
2018-09-11T18:08:02.019Z,52.49
2018-09-11T18:10:30.919Z,52.43
2018-09-11T18:12:59.996Z,52.34
2018-09-11T18:15:28.845Z,52.67
2018-09-11T18:17:57.716Z,53.00
2018-09-11T18:20:26.567Z,52.38
2018-09-11T18:22:55.444Z,52.80
2018-09-11T18:25:24.300Z,53.35
2018-09-11T18:27:53.146Z,53.49
2018-09-11T18:30:22.012Z,54.26
2018-09-11T18:32:50.877Z,54.63
2018-09-11T18:35:20.016Z,54.77
2018-09-11T18:37:48.889Z,54.17
2018-09-11T18:40:17.713Z,54.84
2018-09-11T18:42:46.567Z,55.18
2018-09-11T18:45:15.521Z,55.17
2018-09-11T18:47:44.361Z,55.67
2018-09-11T18:50:13.203Z,55.79
2018-09-11T18:52:42.152Z,56.31
2018-09-11T18:55:10.990Z,56.51
2018-09-11T18:57:39.967Z,56.87
2018-09-11T19:00:08.690Z,57.00
2018-09-11T19:02:37.514Z,57.23
2018-09-11T19:05:06.398Z,57.60
2018-09-11T19:07:35.212Z,58.08
2018-09-11T19:10:04.210Z,58.37
2018-09-11T19:12:33.070Z,59.21
2018-09-11T19:15:01.886Z,59.13
2018-09-11T19:17:30.734Z,59.35
2018-09-11T19:19:59.782Z,59.55
2018-09-11T19:22:28.582Z,59.68
2018-09-11T19:24:57.613Z,60.09
2018-09-11T19:27:26.541Z,59.81
2018-09-11T19:29:55.374Z,60.66
2018-09-11T19:32:24.205Z,60.77
2018-09-11T19:34:53.098Z,61.11
2018-09-11T19:37:21.943Z,61.77
2018-09-11T19:39:50.949Z,62.00
2018-09-11T19:42:19.821Z,62.59
2018-09-11T19:44:48.683Z,62.29
2018-09-11T19:47:17.548Z,61.72
2018-09-11T19:49:46.389Z,62.96
2018-09-11T19:52:15.208Z,62.71
2018-09-11T19:54:44.060Z,62.94
2018-09-11T19:57:12.899Z,63.05
2018-09-11T19:59:41.769Z,62.28
2018-09-11T20:02:10.620Z,63.08
2018-09-11T20:04:39.457Z,63.33
2018-09-11T20:07:08.373Z,63.67
2018-09-11T20:09:37.221Z,63.84
2018-09-11T20:12:06.127Z,64.09
2018-09-11T20:14:34.988Z,64.32
2018-09-11T20:17:03.829Z,64.75
2018-09-11T20:19:32.648Z,64.29
2018-09-11T20:22:01.516Z,65.52
2018-09-11T20:24:30.387Z,65.67
2018-09-11T20:26:59.203Z,65.79
2018-09-11T20:29:28.075Z,66.24
2018-09-11T20:31:56.922Z,66.53
2018-09-11T20:34:25.873Z,66.44
2018-09-11T20:36:54.727Z,65.78
2018-09-11T20:39:23.546Z,66.28
2018-09-11T20:41:52.412Z,66.28
2018-09-11T20:44:21.398Z,66.76
2018-09-11T20:46:50.236Z,66.79
2018-09-11T20:49:19.104Z,67.31
2018-09-11T20:51:48.722Z,67.26
2018-09-11T20:54:17.553Z,67.46
2018-09-11T20:56:46.544Z,67.84
2018-09-11T20:59:15.456Z,67.93
2018-09-11T21:01:44.329Z,67.59
2018-09-11T21:04:13.249Z,68.44
2018-09-11T21:06:42.084Z,68.75
2018-09-11T21:09:11.368Z,68.70
2018-09-11T21:11:40.197Z,68.96
2018-09-11T21:14:09.029Z,69.12
2018-09-11T21:16:37.869Z,69.16
2018-09-11T21:19:06.739Z,69.70
2018-09-11T21:21:35.566Z,69.84
2018-09-11T21:24:04.553Z,70.22
2018-09-11T21:26:33.365Z,70.06
2018-09-11T21:29:02.244Z,70.17
2018-09-11T21:31:31.070Z,70.49
2018-09-11T21:33:59.970Z,70.77
2018-09-11T21:36:28.798Z,70.68
2018-09-11T21:38:57.873Z,71.41
2018-09-11T21:41:26.638Z,71.53
2018-09-11T21:43:55.492Z,70.84
2018-09-11T21:46:24.431Z,71.57
2018-09-11T21:48:53.178Z,71.78
2018-09-11T21:51:22.039Z,71.57
2018-09-11T21:53:50.905Z,71.28
2018-09-11T21:56:19.791Z,70.29
2018-09-11T21:58:48.632Z,70.88
2018-09-11T22:01:34.976Z,71.10
2018-09-11T22:04:03.877Z,71.07
2018-09-11T22:06:32.702Z,71.31
2018-09-11T22:09:01.556Z,70.92
2018-09-11T22:11:30.444Z,71.46
2018-09-11T22:13:59.287Z,71.36
2018-09-11T22:16:28.093Z,71.13
2018-09-11T22:18:56.918Z,71.10
2018-09-11T22:21:25.735Z,71.15
2018-09-11T22:23:54.591Z,70.82
2018-09-11T22:26:23.451Z,71.00
2018-09-11T22:28:52.290Z,71.17
2018-09-11T22:31:21.117Z,71.23
2018-09-11T22:33:49.962Z,71.28
2018-09-11T22:36:18.790Z,71.00
2018-09-11T22:38:47.714Z,71.26
2018-09-11T22:41:16.563Z,71.25
2018-09-11T22:43:45.477Z,71.12
2018-09-11T22:46:14.354Z,70.04
2018-09-11T22:48:43.185Z,70.87
2018-09-11T22:51:12.002Z,70.92
2018-09-11T22:53:40.823Z,70.97
2018-09-11T22:56:09.703Z,71.10
2018-09-11T22:58:38.530Z,71.32
2018-09-11T23:01:07.417Z,70.22
2018-09-11T23:03:36.237Z,71.12
2018-09-11T23:06:05.084Z,71.22
2018-09-11T23:08:33.911Z,71.21
2018-09-11T23:11:02.765Z,71.42
2018-09-11T23:13:31.559Z,71.59
2018-09-11T23:16:00.428Z,71.19
2018-09-11T23:18:29.453Z,71.60
2018-09-11T23:20:58.323Z,70.58
2018-09-11T23:23:27.140Z,71.34
2018-09-11T23:25:55.979Z,71.63
2018-09-11T23:28:24.826Z,71.70
2018-09-11T23:30:53.644Z,71.44
2018-09-11T23:33:22.485Z,71.61
2018-09-11T23:35:51.344Z,72.17
2018-09-11T23:38:20.172Z,71.80
2018-09-11T23:40:48.996Z,71.91
2018-09-11T23:43:17.855Z,71.95
2018-09-11T23:45:46.677Z,71.96
2018-09-11T23:48:15.517Z,72.49
2018-09-11T23:50:44.366Z,72.14
2018-09-11T23:53:13.245Z,71.82
2018-09-11T23:55:42.074Z,71.55
2018-09-11T23:58:10.924Z,72.12
